sensor_id;sensor_type;location;lat;lon;timestamp;P1;durP1;ratioP1;P2;durP2;ratioP2
2177;SDS011;1095;50.992;6.798;2023-12-14T00:02:06;82.55;;;34.95;;
2177;SDS011;1095;50.992;6.798;2023-12-14T00:04:33;73.60;;;33.30;;
2177;SDS011;1095;50.992;6.798;2023-12-14T00:06:59;75.65;;;34.20;;
2177;SDS011;1095;50.992;6.798;2023-12-14T00:09:26;75.93;;;35.38;;
2177;SDS011;1095;50.992;6.798;2023-12-14T00:11:53;81.35;;;34.78;;
2177;SDS011;1095;50.992;6.798;2023-12-14T00:14:19;79.05;;;33.63;;
2177;SDS011;1095;50.992;6.798;2023-12-14T00:16:47;81.60;;;34.53;;
2177;SDS011;1095;50.992;6.798;2023-12-14T00:19:14;80.13;;;34.88;;
2177;SDS011;1095;50.992;6.798;2023-12-14T00:21:41;77.80;;;34.47;;
2177;SDS011;1095;50.992;6.798;2023-12-14T00:24:07;72.13;;;33.45;;
2177;SDS011;1095;50.992;6.798;2023-12-14T00:26:34;78.53;;;34.40;;
2177;SDS011;1095;50.992;6.798;2023-12-14T00:29:00;80.65;;;34.97;;
2177;SDS011;1095;50.992;6.798;2023-12-14T00:31:27;75.65;;;33.10;;
2177;SDS011;1095;50.992;6.798;2023-12-14T00:33:55;74.60;;;34.70;;
2177;SDS011;1095;50.992;6.798;2023-12-14T00:36:22;80.13;;;34.53;;
2177;SDS011;1095;50.992;6.798;2023-12-14T00:38:48;83.82;;;34.42;;
2177;SDS011;1095;50.992;6.798;2023-12-14T00:41:17;86.78;;;36.15;;
2177;SDS011;1095;50.992;6.798;2023-12-14T00:43:43;83.05;;;35.50;;
2177;SDS011;1095;50.992;6.798;2023-12-14T00:46:10;94.10;;;38.15;;
2177;SDS011;1095;50.992;6.798;2023-12-14T00:48:37;85.00;;;35.15;;
2177;SDS011;1095;50.992;6.798;2023-12-14T00:51:05;85.07;;;36.95;;
2177;SDS011;1095;50.992;6.798;2023-12-14T00:53:32;89.97;;;37.80;;
2177;SDS011;1095;50.992;6.798;2023-12-14T00:55:58;94.10;;;37.33;;
2177;SDS011;1095;50.992;6.798;2023-12-14T00:58:25;88.70;;;39.38;;
2177;SDS011;1095;50.992;6.798;2023-12-14T01:00:52;89.63;;;38.58;;
2177;SDS011;1095;50.992;6.798;2023-12-14T01:03:21;94.75;;;37.65;;
2177;SDS011;1095;50.992;6.798;2023-12-14T01:05:48;83.60;;;36.65;;
2177;SDS011;1095;50.992;6.798;2023-12-14T01:08:16;94.57;;;40.10;;
2177;SDS011;1095;50.992;6.798;2023-12-14T01:10:43;98.57;;;38.70;;
2177;SDS011;1095;50.992;6.798;2023-12-14T01:13:08;95.72;;;39.63;;
2177;SDS011;1095;50.992;6.798;2023-12-14T01:15:38;85.88;;;38.95;;
2177;SDS011;1095;50.992;6.798;2023-12-14T01:18:05;92.07;;;38.13;;
2177;SDS011;1095;50.992;6.798;2023-12-14T01:20:32;86.45;;;39.90;;
2177;SDS011;1095;50.992;6.798;2023-12-14T01:22:58;86.45;;;38.20;;
2177;SDS011;1095;50.992;6.798;2023-12-14T01:25:26;87.75;;;37.90;;
2177;SDS011;1095;50.992;6.798;2023-12-14T01:27:53;91.38;;;40.97;;
2177;SDS011;1095;50.992;6.798;2023-12-14T01:30:19;96.32;;;41.75;;
2177;SDS011;1095;50.992;6.798;2023-12-14T01:32:46;94.90;;;40.80;;
2177;SDS011;1095;50.992;6.798;2023-12-14T01:35:13;95.38;;;40.47;;
2177;SDS011;1095;50.992;6.798;2023-12-14T01:37:40;99.20;;;41.83;;
2177;SDS011;1095;50.992;6.798;2023-12-14T01:40:07;97.55;;;41.75;;
2177;SDS011;1095;50.992;6.798;2023-12-14T01:42:35;92.90;;;42.70;;
2177;SDS011;1095;50.992;6.798;2023-12-14T01:45:02;88.72;;;39.15;;
2177;SDS011;1095;50.992;6.798;2023-12-14T01:47:30;97.85;;;40.83;;
2177;SDS011;1095;50.992;6.798;2023-12-14T01:49:56;99.38;;;41.90;;
2177;SDS011;1095;50.992;6.798;2023-12-14T01:52:23;99.75;;;42.65;;
2177;SDS011;1095;50.992;6.798;2023-12-14T01:54:51;97.78;;;42.17;;
2177;SDS011;1095;50.992;6.798;2023-12-14T01:57:17;97.20;;;42.13;;
2177;SDS011;1095;50.992;6.798;2023-12-14T01:59:45;103.70;;;44.88;;
2177;SDS011;1095;50.992;6.798;2023-12-14T02:02:12;104.22;;;45.70;;
2177;SDS011;1095;50.992;6.798;2023-12-14T02:04:38;114.37;;;45.70;;
2177;SDS011;1095;50.992;6.798;2023-12-14T02:07:05;104.43;;;45.90;;
2177;SDS011;1095;50.992;6.798;2023-12-14T02:09:32;109.22;;;44.67;;
2177;SDS011;1095;50.992;6.798;2023-12-14T02:11:59;113.80;;;44.70;;
2177;SDS011;1095;50.992;6.798;2023-12-14T02:14:25;108.15;;;42.40;;
2177;SDS011;1095;50.992;6.798;2023-12-14T02:16:53;117.68;;;45.00;;
2177;SDS011;1095;50.992;6.798;2023-12-14T02:19:20;113.25;;;42.95;;
2177;SDS011;1095;50.992;6.798;2023-12-14T02:21:46;103.18;;;40.35;;
2177;SDS011;1095;50.992;6.798;2023-12-14T02:24:14;99.15;;;39.83;;
2177;SDS011;1095;50.992;6.798;2023-12-14T02:26:41;101.30;;;39.22;;
2177;SDS011;1095;50.992;6.798;2023-12-14T02:29:09;96.85;;;39.40;;
2177;SDS011;1095;50.992;6.798;2023-12-14T02:31:35;90.47;;;37.60;;
2177;SDS011;1095;50.992;6.798;2023-12-14T02:34:02;82.57;;;34.70;;
2177;SDS011;1095;50.992;6.798;2023-12-14T02:36:29;80.47;;;35.42;;
2177;SDS011;1095;50.992;6.798;2023-12-14T02:38:55;80.70;;;35.70;;
2177;SDS011;1095;50.992;6.798;2023-12-14T02:41:23;82.88;;;34.50;;
2177;SDS011;1095;50.992;6.798;2023-12-14T02:43:50;71.38;;;34.15;;
2177;SDS011;1095;50.992;6.798;2023-12-14T02:46:17;61.78;;;30.75;;
2177;SDS011;1095;50.992;6.798;2023-12-14T02:48:43;69.57;;;29.83;;
2177;SDS011;1095;50.992;6.798;2023-12-14T02:51:12;61.30;;;30.33;;
2177;SDS011;1095;50.992;6.798;2023-12-14T02:53:39;67.93;;;29.92;;
2177;SDS011;1095;50.992;6.798;2023-12-14T02:56:07;62.40;;;30.52;;
2177;SDS011;1095;50.992;6.798;2023-12-14T02:58:36;58.05;;;29.75;;
2177;SDS011;1095;50.992;6.798;2023-12-14T03:01:03;65.03;;;32.42;;
2177;SDS011;1095;50.992;6.798;2023-12-14T03:03:30;62.95;;;31.85;;
2177;SDS011;1095;50.992;6.798;2023-12-14T03:05:56;62.92;;;31.92;;
2177;SDS011;1095;50.992;6.798;2023-12-14T03:08:23;68.55;;;32.58;;
2177;SDS011;1095;50.992;6.798;2023-12-14T03:10:50;68.10;;;34.63;;
2177;SDS011;1095;50.992;6.798;2023-12-14T03:13:16;66.40;;;33.83;;
2177;SDS011;1095;50.992;6.798;2023-12-14T03:15:44;64.10;;;32.13;;
2177;SDS011;1095;50.992;6.798;2023-12-14T03:18:14;63.70;;;32.78;;
2177;SDS011;1095;50.992;6.798;2023-12-14T03:20:40;57.78;;;28.70;;
2177;SDS011;1095;50.992;6.798;2023-12-14T03:23:07;59.53;;;27.95;;
2177;SDS011;1095;50.992;6.798;2023-12-14T03:25:34;66.20;;;29.25;;
2177;SDS011;1095;50.992;6.798;2023-12-14T03:28:00;58.63;;;28.15;;
2177;SDS011;1095;50.992;6.798;2023-12-14T03:30:27;61.47;;;29.05;;
2177;SDS011;1095;50.992;6.798;2023-12-14T03:32:55;57.53;;;28.13;;
2177;SDS011;1095;50.992;6.798;2023-12-14T03:35:22;59.47;;;27.45;;
2177;SDS011;1095;50.992;6.798;2023-12-14T03:37:48;53.38;;;26.75;;
2177;SDS011;1095;50.992;6.798;2023-12-14T03:40:18;51.08;;;25.90;;
2177;SDS011;1095;50.992;6.798;2023-12-14T03:42:44;48.85;;;25.88;;
2177;SDS011;1095;50.992;6.798;2023-12-14T03:45:11;53.70;;;27.83;;
2177;SDS011;1095;50.992;6.798;2023-12-14T03:47:38;52.33;;;27.48;;
2177;SDS011;1095;50.992;6.798;2023-12-14T03:50:06;57.13;;;29.42;;
2177;SDS011;1095;50.992;6.798;2023-12-14T03:52:34;60.78;;;31.00;;
2177;SDS011;1095;50.992;6.798;2023-12-14T03:55:01;61.63;;;32.40;;
2177;SDS011;1095;50.992;6.798;2023-12-14T03:57:27;64.60;;;32.70;;
2177;SDS011;1095;50.992;6.798;2023-12-14T03:59:54;70.97;;;35.38;;
2177;SDS011;1095;50.992;6.798;2023-12-14T04:02:21;72.90;;;37.45;;
2177;SDS011;1095;50.992;6.798;2023-12-14T04:07:16;84.40;;;40.70;;
2177;SDS011;1095;50.992;6.798;2023-12-14T04:09:43;89.95;;;39.50;;
2177;SDS011;1095;50.992;6.798;2023-12-14T04:12:11;78.90;;;36.72;;
2177;SDS011;1095;50.992;6.798;2023-12-14T04:14:38;83.20;;;36.33;;
2177;SDS011;1095;50.992;6.798;2023-12-14T04:17:04;77.07;;;35.65;;
2177;SDS011;1095;50.992;6.798;2023-12-14T04:19:31;82.50;;;35.55;;
2177;SDS011;1095;50.992;6.798;2023-12-14T04:21:57;78.97;;;34.75;;
2177;SDS011;1095;50.992;6.798;2023-12-14T04:24:25;84.68;;;37.55;;
2177;SDS011;1095;50.992;6.798;2023-12-14T04:26:52;100.25;;;42.45;;
2177;SDS011;1095;50.992;6.798;2023-12-14T04:29:19;104.40;;;43.67;;
2177;SDS011;1095;50.992;6.798;2023-12-14T04:31:45;113.13;;;44.28;;
2177;SDS011;1095;50.992;6.798;2023-12-14T04:34:12;111.45;;;44.72;;
2177;SDS011;1095;50.992;6.798;2023-12-14T04:36:40;103.07;;;42.80;;
2177;SDS011;1095;50.992;6.798;2023-12-14T04:39:07;105.78;;;42.13;;
2177;SDS011;1095;50.992;6.798;2023-12-14T04:41:35;107.63;;;43.03;;
2177;SDS011;1095;50.992;6.798;2023-12-14T04:44:02;102.38;;;38.80;;
2177;SDS011;1095;50.992;6.798;2023-12-14T04:46:29;90.95;;;35.83;;
2177;SDS011;1095;50.992;6.798;2023-12-14T04:48:55;77.95;;;34.78;;
2177;SDS011;1095;50.992;6.798;2023-12-14T04:51:22;85.78;;;35.33;;
2177;SDS011;1095;50.992;6.798;2023-12-14T04:53:48;79.07;;;34.97;;
2177;SDS011;1095;50.992;6.798;2023-12-14T04:56:15;73.20;;;34.10;;
2177;SDS011;1095;50.992;6.798;2023-12-14T04:58:43;80.15;;;36.05;;
2177;SDS011;1095;50.992;6.798;2023-12-14T05:01:09;76.78;;;34.28;;
2177;SDS011;1095;50.992;6.798;2023-12-14T05:03:37;74.95;;;34.80;;
2177;SDS011;1095;50.992;6.798;2023-12-14T05:06:04;84.65;;;36.03;;
2177;SDS011;1095;50.992;6.798;2023-12-14T05:08:31;77.70;;;37.08;;
2177;SDS011;1095;50.992;6.798;2023-12-14T05:10:57;76.88;;;36.22;;
2177;SDS011;1095;50.992;6.798;2023-12-14T05:13:24;74.90;;;34.75;;
2177;SDS011;1095;50.992;6.798;2023-12-14T05:15:52;73.57;;;34.85;;
2177;SDS011;1095;50.992;6.798;2023-12-14T05:25:25;64.50;;;32.25;;
2177;SDS011;1095;50.992;6.798;2023-12-14T05:27:51;66.97;;;31.80;;
2177;SDS011;1095;50.992;6.798;2023-12-14T05:30:18;61.00;;;29.90;;
2177;SDS011;1095;50.992;6.798;2023-12-14T05:32:46;59.80;;;28.95;;
2177;SDS011;1095;50.992;6.798;2023-12-14T05:35:13;56.70;;;27.75;;
2177;SDS011;1095;50.992;6.798;2023-12-14T05:37:39;57.50;;;26.85;;
2177;SDS011;1095;50.992;6.798;2023-12-14T05:40:09;51.42;;;25.65;;
2177;SDS011;1095;50.992;6.798;2023-12-14T05:42:36;56.17;;;28.45;;
2177;SDS011;1095;50.992;6.798;2023-12-14T05:45:04;64.80;;;27.73;;
2177;SDS011;1095;50.992;6.798;2023-12-14T05:47:34;68.97;;;29.80;;
2177;SDS011;1095;50.992;6.798;2023-12-14T05:50:02;63.40;;;29.13;;
2177;SDS011;1095;50.992;6.798;2023-12-14T05:52:30;69.80;;;29.90;;
2177;SDS011;1095;50.992;6.798;2023-12-14T05:54:56;64.47;;;29.75;;
2177;SDS011;1095;50.992;6.798;2023-12-14T05:57:23;77.75;;;33.42;;
2177;SDS011;1095;50.992;6.798;2023-12-14T05:59:50;68.88;;;29.45;;
2177;SDS011;1095;50.992;6.798;2023-12-14T06:02:17;69.55;;;30.88;;
2177;SDS011;1095;50.992;6.798;2023-12-14T06:04:44;73.65;;;31.85;;
2177;SDS011;1095;50.992;6.798;2023-12-14T06:07:15;71.10;;;31.80;;
2177;SDS011;1095;50.992;6.798;2023-12-14T06:09:42;64.30;;;30.73;;
2177;SDS011;1095;50.992;6.798;2023-12-14T06:12:08;65.43;;;30.42;;
2177;SDS011;1095;50.992;6.798;2023-12-14T06:14:35;67.03;;;29.02;;
2177;SDS011;1095;50.992;6.798;2023-12-14T06:17:02;62.42;;;27.13;;
2177;SDS011;1095;50.992;6.798;2023-12-14T06:19:28;70.68;;;28.85;;
2177;SDS011;1095;50.992;6.798;2023-12-14T06:21:55;70.07;;;28.55;;
2177;SDS011;1095;50.992;6.798;2023-12-14T06:24:23;75.97;;;30.23;;
2177;SDS011;1095;50.992;6.798;2023-12-14T06:26:50;74.40;;;30.98;;
2177;SDS011;1095;50.992;6.798;2023-12-14T06:29:16;83.68;;;31.15;;
2177;SDS011;1095;50.992;6.798;2023-12-14T06:31:43;77.13;;;30.08;;
2177;SDS011;1095;50.992;6.798;2023-12-14T06:34:11;69.43;;;29.08;;
2177;SDS011;1095;50.992;6.798;2023-12-14T06:36:41;75.63;;;28.90;;
2177;SDS011;1095;50.992;6.798;2023-12-14T06:39:08;83.38;;;30.58;;
2177;SDS011;1095;50.992;6.798;2023-12-14T06:41:37;79.40;;;29.58;;
2177;SDS011;1095;50.992;6.798;2023-12-14T06:44:04;77.57;;;29.77;;
2177;SDS011;1095;50.992;6.798;2023-12-14T06:46:37;83.18;;;31.05;;
2177;SDS011;1095;50.992;6.798;2023-12-14T06:49:03;73.90;;;29.92;;
2177;SDS011;1095;50.992;6.798;2023-12-14T06:51:30;93.47;;;29.08;;
2177;SDS011;1095;50.992;6.798;2023-12-14T06:53:57;80.22;;;28.65;;
2177;SDS011;1095;50.992;6.798;2023-12-14T06:56:24;81.97;;;27.80;;
2177;SDS011;1095;50.992;6.798;2023-12-14T06:58:52;89.40;;;29.20;;
2177;SDS011;1095;50.992;6.798;2023-12-14T07:01:18;82.07;;;29.65;;
2177;SDS011;1095;50.992;6.798;2023-12-14T07:03:45;88.40;;;30.42;;
2177;SDS011;1095;50.992;6.798;2023-12-14T07:06:13;88.22;;;29.27;;
2177;SDS011;1095;50.992;6.798;2023-12-14T07:08:40;75.40;;;28.95;;
2177;SDS011;1095;50.992;6.798;2023-12-14T07:11:07;82.53;;;29.25;;
2177;SDS011;1095;50.992;6.798;2023-12-14T07:13:37;82.22;;;28.85;;
2177;SDS011;1095;50.992;6.798;2023-12-14T07:16:06;75.00;;;29.60;;
2177;SDS011;1095;50.992;6.798;2023-12-14T07:18:34;77.72;;;27.55;;
2177;SDS011;1095;50.992;6.798;2023-12-14T07:21:01;74.70;;;27.85;;
2177;SDS011;1095;50.992;6.798;2023-12-14T07:23:28;81.95;;;28.60;;
2177;SDS011;1095;50.992;6.798;2023-12-14T07:25:57;77.70;;;27.40;;
2177;SDS011;1095;50.992;6.798;2023-12-14T07:28:23;78.40;;;27.40;;
2177;SDS011;1095;50.992;6.798;2023-12-14T07:30:50;67.82;;;26.35;;
2177;SDS011;1095;50.992;6.798;2023-12-14T07:33:18;70.20;;;24.95;;
2177;SDS011;1095;50.992;6.798;2023-12-14T07:35:45;67.97;;;27.48;;
2177;SDS011;1095;50.992;6.798;2023-12-14T07:38:11;68.18;;;27.95;;
2177;SDS011;1095;50.992;6.798;2023-12-14T07:40:38;74.93;;;25.77;;
2177;SDS011;1095;50.992;6.798;2023-12-14T07:43:05;70.93;;;27.08;;
2177;SDS011;1095;50.992;6.798;2023-12-14T07:45:32;64.43;;;24.52;;
2177;SDS011;1095;50.992;6.798;2023-12-14T07:47:59;61.53;;;24.13;;
2177;SDS011;1095;50.992;6.798;2023-12-14T07:50:27;57.83;;;23.73;;
2177;SDS011;1095;50.992;6.798;2023-12-14T07:52:53;52.97;;;22.48;;
2177;SDS011;1095;50.992;6.798;2023-12-14T07:55:20;55.03;;;22.58;;
2177;SDS011;1095;50.992;6.798;2023-12-14T07:57:47;52.45;;;20.52;;
2177;SDS011;1095;50.992;6.798;2023-12-14T08:00:15;50.80;;;20.77;;
2177;SDS011;1095;50.992;6.798;2023-12-14T08:02:42;57.85;;;23.08;;
2177;SDS011;1095;50.992;6.798;2023-12-14T08:05:08;48.95;;;20.00;;
2177;SDS011;1095;50.992;6.798;2023-12-14T08:07:37;48.35;;;21.38;;
2177;SDS011;1095;50.992;6.798;2023-12-14T08:10:04;50.97;;;21.80;;
2177;SDS011;1095;50.992;6.798;2023-12-14T08:12:31;45.90;;;20.77;;
2177;SDS011;1095;50.992;6.798;2023-12-14T08:14:57;50.38;;;22.65;;
2177;SDS011;1095;50.992;6.798;2023-12-14T08:17:24;50.60;;;21.70;;
2177;SDS011;1095;50.992;6.798;2023-12-14T08:19:53;52.28;;;22.38;;
2177;SDS011;1095;50.992;6.798;2023-12-14T08:22:19;53.38;;;22.70;;
2177;SDS011;1095;50.992;6.798;2023-12-14T08:24:48;41.20;;;20.13;;
2177;SDS011;1095;50.992;6.798;2023-12-14T08:27:14;49.95;;;22.05;;
2177;SDS011;1095;50.992;6.798;2023-12-14T08:29:41;48.03;;;22.00;;
2177;SDS011;1095;50.992;6.798;2023-12-14T08:32:08;50.83;;;22.45;;
2177;SDS011;1095;50.992;6.798;2023-12-14T08:34:34;45.10;;;20.95;;
2177;SDS011;1095;50.992;6.798;2023-12-14T08:37:01;47.47;;;22.40;;
2177;SDS011;1095;50.992;6.798;2023-12-14T08:39:28;45.83;;;23.00;;
2177;SDS011;1095;50.992;6.798;2023-12-14T08:41:56;52.78;;;24.77;;
2177;SDS011;1095;50.992;6.798;2023-12-14T08:44:22;51.88;;;23.52;;
2177;SDS011;1095;50.992;6.798;2023-12-14T08:46:49;52.88;;;24.67;;
2177;SDS011;1095;50.992;6.798;2023-12-14T08:49:16;52.13;;;24.90;;
2177;SDS011;1095;50.992;6.798;2023-12-14T08:51:42;52.85;;;23.85;;
2177;SDS011;1095;50.992;6.798;2023-12-14T08:54:09;52.13;;;23.25;;
2177;SDS011;1095;50.992;6.798;2023-12-14T08:56:35;55.28;;;24.45;;
2177;SDS011;1095;50.992;6.798;2023-12-14T08:59:03;56.40;;;23.20;;
2177;SDS011;1095;50.992;6.798;2023-12-14T09:01:30;51.53;;;23.83;;
2177;SDS011;1095;50.992;6.798;2023-12-14T09:03:57;54.25;;;24.05;;
2177;SDS011;1095;50.992;6.798;2023-12-14T09:06:23;54.63;;;24.23;;
2177;SDS011;1095;50.992;6.798;2023-12-14T09:08:50;52.95;;;23.77;;
2177;SDS011;1095;50.992;6.798;2023-12-14T09:11:17;53.80;;;24.38;;
2177;SDS011;1095;50.992;6.798;2023-12-14T09:13:44;51.03;;;24.00;;
2177;SDS011;1095;50.992;6.798;2023-12-14T09:16:12;48.25;;;23.60;;
2177;SDS011;1095;50.992;6.798;2023-12-14T09:18:38;52.63;;;23.17;;
2177;SDS011;1095;50.992;6.798;2023-12-14T09:21:05;52.67;;;25.15;;
2177;SDS011;1095;50.992;6.798;2023-12-14T09:23:32;45.95;;;23.08;;
2177;SDS011;1095;50.992;6.798;2023-12-14T09:25:58;47.05;;;22.73;;
2177;SDS011;1095;50.992;6.798;2023-12-14T09:28:25;52.60;;;23.92;;
2177;SDS011;1095;50.992;6.798;2023-12-14T09:30:52;73.57;;;36.70;;
2177;SDS011;1095;50.992;6.798;2023-12-14T09:33:21;54.13;;;26.25;;
2177;SDS011;1095;50.992;6.798;2023-12-14T09:35:48;51.95;;;24.73;;
2177;SDS011;1095;50.992;6.798;2023-12-14T09:38:15;48.80;;;24.38;;
2177;SDS011;1095;50.992;6.798;2023-12-14T09:40:44;50.38;;;24.95;;
2177;SDS011;1095;50.992;6.798;2023-12-14T09:43:11;49.85;;;23.15;;
2177;SDS011;1095;50.992;6.798;2023-12-14T09:45:41;47.78;;;23.50;;
2177;SDS011;1095;50.992;6.798;2023-12-14T09:48:10;49.35;;;24.08;;
2177;SDS011;1095;50.992;6.798;2023-12-14T09:50:40;42.58;;;22.75;;
2177;SDS011;1095;50.992;6.798;2023-12-14T09:53:07;46.63;;;23.42;;
2177;SDS011;1095;50.992;6.798;2023-12-14T09:55:34;49.55;;;25.67;;
2177;SDS011;1095;50.992;6.798;2023-12-14T09:58:01;45.67;;;23.23;;
2177;SDS011;1095;50.992;6.798;2023-12-14T10:00:35;46.85;;;24.38;;
2177;SDS011;1095;50.992;6.798;2023-12-14T10:03:24;49.30;;;24.67;;
2177;SDS011;1095;50.992;6.798;2023-12-14T10:05:57;52.03;;;25.55;;
2177;SDS011;1095;50.992;6.798;2023-12-14T10:08:28;58.83;;;26.83;;
2177;SDS011;1095;50.992;6.798;2023-12-14T10:10:55;50.25;;;25.10;;
2177;SDS011;1095;50.992;6.798;2023-12-14T10:13:22;55.15;;;25.88;;
2177;SDS011;1095;50.992;6.798;2023-12-14T10:16:02;51.25;;;24.85;;
2177;SDS011;1095;50.992;6.798;2023-12-14T10:18:31;55.30;;;25.88;;
2177;SDS011;1095;50.992;6.798;2023-12-14T10:21:00;54.78;;;25.75;;
2177;SDS011;1095;50.992;6.798;2023-12-14T10:23:27;54.30;;;25.48;;
2177;SDS011;1095;50.992;6.798;2023-12-14T10:25:54;60.22;;;27.25;;
2177;SDS011;1095;50.992;6.798;2023-12-14T10:28:21;51.58;;;24.13;;
2177;SDS011;1095;50.992;6.798;2023-12-14T10:30:49;55.95;;;27.08;;
2177;SDS011;1095;50.992;6.798;2023-12-14T10:33:16;50.97;;;24.95;;
2177;SDS011;1095;50.992;6.798;2023-12-14T10:35:42;50.83;;;24.98;;
2177;SDS011;1095;50.992;6.798;2023-12-14T10:38:12;48.85;;;25.23;;
2177;SDS011;1095;50.992;6.798;2023-12-14T10:40:42;42.65;;;22.85;;
2177;SDS011;1095;50.992;6.798;2023-12-14T10:43:11;42.08;;;22.13;;
2177;SDS011;1095;50.992;6.798;2023-12-14T10:45:38;45.38;;;22.65;;
2177;SDS011;1095;50.992;6.798;2023-12-14T10:48:08;47.70;;;23.58;;
2177;SDS011;1095;50.992;6.798;2023-12-14T10:50:38;43.78;;;22.98;;
2177;SDS011;1095;50.992;6.798;2023-12-14T10:53:08;44.40;;;23.27;;
2177;SDS011;1095;50.992;6.798;2023-12-14T10:55:38;43.63;;;22.38;;
2177;SDS011;1095;50.992;6.798;2023-12-14T10:58:09;42.45;;;22.52;;
2177;SDS011;1095;50.992;6.798;2023-12-14T11:00:38;41.50;;;22.13;;
2177;SDS011;1095;50.992;6.798;2023-12-14T11:03:05;41.17;;;20.98;;
2177;SDS011;1095;50.992;6.798;2023-12-14T11:05:32;41.80;;;22.42;;
2177;SDS011;1095;50.992;6.798;2023-12-14T11:08:01;39.80;;;21.83;;
2177;SDS011;1095;50.992;6.798;2023-12-14T11:10:39;39.30;;;21.25;;
2177;SDS011;1095;50.992;6.798;2023-12-14T11:13:06;39.83;;;22.23;;
2177;SDS011;1095;50.992;6.798;2023-12-14T11:15:38;40.50;;;22.02;;
2177;SDS011;1095;50.992;6.798;2023-12-14T11:20:52;40.15;;;21.85;;
2177;SDS011;1095;50.992;6.798;2023-12-14T11:23:28;40.40;;;22.00;;
2177;SDS011;1095;50.992;6.798;2023-12-14T11:26:01;40.50;;;22.42;;
2177;SDS011;1095;50.992;6.798;2023-12-14T11:28:29;41.95;;;21.95;;
2177;SDS011;1095;50.992;6.798;2023-12-14T11:30:57;43.83;;;22.27;;
2177;SDS011;1095;50.992;6.798;2023-12-14T11:33:24;40.85;;;22.80;;
2177;SDS011;1095;50.992;6.798;2023-12-14T11:35:53;41.45;;;22.15;;
2177;SDS011;1095;50.992;6.798;2023-12-14T11:38:20;42.60;;;22.40;;
2177;SDS011;1095;50.992;6.798;2023-12-14T11:40:49;38.53;;;21.38;;
2177;SDS011;1095;50.992;6.798;2023-12-14T11:43:17;43.60;;;24.60;;
2177;SDS011;1095;50.992;6.798;2023-12-14T11:45:45;42.63;;;22.42;;
2177;SDS011;1095;50.992;6.798;2023-12-14T11:48:12;38.80;;;21.42;;
2177;SDS011;1095;50.992;6.798;2023-12-14T11:50:39;40.65;;;22.23;;
2177;SDS011;1095;50.992;6.798;2023-12-14T11:53:07;44.95;;;22.23;;
2177;SDS011;1095;50.992;6.798;2023-12-14T11:55:35;39.88;;;21.48;;
2177;SDS011;1095;50.992;6.798;2023-12-14T11:58:03;46.38;;;23.48;;
2177;SDS011;1095;50.992;6.798;2023-12-14T12:00:32;42.38;;;22.13;;
2177;SDS011;1095;50.992;6.798;2023-12-14T12:03:08;43.10;;;22.75;;
2177;SDS011;1095;50.992;6.798;2023-12-14T12:05:35;41.45;;;22.80;;
2177;SDS011;1095;50.992;6.798;2023-12-14T12:08:02;38.65;;;20.70;;
2177;SDS011;1095;50.992;6.798;2023-12-14T12:10:29;38.40;;;20.50;;
2177;SDS011;1095;50.992;6.798;2023-12-14T12:12:58;39.13;;;20.27;;
2177;SDS011;1095;50.992;6.798;2023-12-14T12:15:26;38.70;;;20.58;;
2177;SDS011;1095;50.992;6.798;2023-12-14T12:17:54;42.05;;;21.02;;
2177;SDS011;1095;50.992;6.798;2023-12-14T12:20:23;37.90;;;20.70;;
2177;SDS011;1095;50.992;6.798;2023-12-14T12:22:50;36.60;;;21.08;;
2177;SDS011;1095;50.992;6.798;2023-12-14T12:25:17;34.15;;;19.90;;
2177;SDS011;1095;50.992;6.798;2023-12-14T12:27:44;35.65;;;21.02;;
2177;SDS011;1095;50.992;6.798;2023-12-14T12:30:10;34.60;;;19.83;;
2177;SDS011;1095;50.992;6.798;2023-12-14T12:32:38;38.13;;;21.40;;
2177;SDS011;1095;50.992;6.798;2023-12-14T12:35:06;34.20;;;20.58;;
2177;SDS011;1095;50.992;6.798;2023-12-14T12:37:33;34.80;;;19.60;;
2177;SDS011;1095;50.992;6.798;2023-12-14T12:39:59;32.80;;;19.70;;
2177;SDS011;1095;50.992;6.798;2023-12-14T12:42:27;33.42;;;19.38;;
2177;SDS011;1095;50.992;6.798;2023-12-14T12:44:54;31.58;;;18.77;;
2177;SDS011;1095;50.992;6.798;2023-12-14T12:47:21;31.48;;;17.33;;
2177;SDS011;1095;50.992;6.798;2023-12-14T12:49:47;33.08;;;19.35;;
2177;SDS011;1095;50.992;6.798;2023-12-14T12:52:16;29.55;;;18.00;;
2177;SDS011;1095;50.992;6.798;2023-12-14T12:54:43;27.60;;;16.63;;
2177;SDS011;1095;50.992;6.798;2023-12-14T12:57:09;30.50;;;18.13;;
2177;SDS011;1095;50.992;6.798;2023-12-14T12:59:36;29.33;;;17.08;;
2177;SDS011;1095;50.992;6.798;2023-12-14T13:02:03;27.13;;;16.88;;
2177;SDS011;1095;50.992;6.798;2023-12-14T13:04:30;29.17;;;16.23;;
2177;SDS011;1095;50.992;6.798;2023-12-14T13:06:56;29.75;;;15.88;;
2177;SDS011;1095;50.992;6.798;2023-12-14T13:09:24;28.40;;;17.17;;
2177;SDS011;1095;50.992;6.798;2023-12-14T13:11:51;27.55;;;15.60;;
2177;SDS011;1095;50.992;6.798;2023-12-14T13:14:18;33.53;;;17.90;;
2177;SDS011;1095;50.992;6.798;2023-12-14T13:16:44;28.88;;;16.15;;
2177;SDS011;1095;50.992;6.798;2023-12-14T13:19:12;28.38;;;16.23;;
2177;SDS011;1095;50.992;6.798;2023-12-14T13:21:39;28.85;;;16.73;;
2177;SDS011;1095;50.992;6.798;2023-12-14T13:24:06;28.40;;;16.33;;
2177;SDS011;1095;50.992;6.798;2023-12-14T13:26:34;26.60;;;16.38;;
2177;SDS011;1095;50.992;6.798;2023-12-14T13:29:01;31.95;;;16.90;;
2177;SDS011;1095;50.992;6.798;2023-12-14T13:31:28;30.05;;;17.30;;
2177;SDS011;1095;50.992;6.798;2023-12-14T13:33:54;28.05;;;16.00;;
2177;SDS011;1095;50.992;6.798;2023-12-14T13:36:21;30.02;;;16.63;;
2177;SDS011;1095;50.992;6.798;2023-12-14T13:38:48;32.00;;;16.98;;
2177;SDS011;1095;50.992;6.798;2023-12-14T13:41:15;30.58;;;16.48;;
2177;SDS011;1095;50.992;6.798;2023-12-14T13:43:43;28.35;;;16.17;;
2177;SDS011;1095;50.992;6.798;2023-12-14T13:46:11;26.00;;;15.15;;
2177;SDS011;1095;50.992;6.798;2023-12-14T13:48:38;23.80;;;14.52;;
2177;SDS011;1095;50.992;6.798;2023-12-14T13:51:04;26.48;;;15.15;;
2177;SDS011;1095;50.992;6.798;2023-12-14T13:53:32;24.65;;;14.48;;
2177;SDS011;1095;50.992;6.798;2023-12-14T13:55:59;22.65;;;14.57;;
2177;SDS011;1095;50.992;6.798;2023-12-14T13:58:25;24.73;;;14.25;;
2177;SDS011;1095;50.992;6.798;2023-12-14T14:00:53;28.02;;;15.00;;
2177;SDS011;1095;50.992;6.798;2023-12-14T14:03:20;22.50;;;13.88;;
2177;SDS011;1095;50.992;6.798;2023-12-14T14:05:47;23.95;;;13.57;;
2177;SDS011;1095;50.992;6.798;2023-12-14T14:08:13;21.25;;;12.60;;
2177;SDS011;1095;50.992;6.798;2023-12-14T14:10:40;22.05;;;13.05;;
2177;SDS011;1095;50.992;6.798;2023-12-14T14:13:06;22.35;;;13.30;;
2177;SDS011;1095;50.992;6.798;2023-12-14T14:15:35;25.23;;;13.52;;
2177;SDS011;1095;50.992;6.798;2023-12-14T14:18:03;22.70;;;12.43;;
2177;SDS011;1095;50.992;6.798;2023-12-14T14:20:30;33.55;;;17.95;;
2177;SDS011;1095;50.992;6.798;2023-12-14T14:22:56;32.45;;;17.60;;
2177;SDS011;1095;50.992;6.798;2023-12-14T14:25:24;29.20;;;15.15;;
2177;SDS011;1095;50.992;6.798;2023-12-14T14:27:51;21.38;;;12.55;;
2177;SDS011;1095;50.992;6.798;2023-12-14T14:30:18;22.30;;;13.85;;
2177;SDS011;1095;50.992;6.798;2023-12-14T14:32:44;22.42;;;13.07;;
2177;SDS011;1095;50.992;6.798;2023-12-14T14:35:12;23.88;;;12.60;;
2177;SDS011;1095;50.992;6.798;2023-12-14T14:37:39;21.23;;;11.90;;
2177;SDS011;1095;50.992;6.798;2023-12-14T14:40:10;21.27;;;12.75;;
2177;SDS011;1095;50.992;6.798;2023-12-14T14:42:38;22.45;;;12.82;;
2177;SDS011;1095;50.992;6.798;2023-12-14T14:45:05;22.55;;;12.88;;
2177;SDS011;1095;50.992;6.798;2023-12-14T14:47:32;23.27;;;12.40;;
2177;SDS011;1095;50.992;6.798;2023-12-14T14:49:59;19.70;;;11.68;;
2177;SDS011;1095;50.992;6.798;2023-12-14T14:52:30;23.67;;;12.43;;
2177;SDS011;1095;50.992;6.798;2023-12-14T14:54:57;21.58;;;11.70;;
2177;SDS011;1095;50.992;6.798;2023-12-14T14:57:25;22.35;;;12.30;;
2177;SDS011;1095;50.992;6.798;2023-12-14T14:59:51;24.58;;;11.98;;
2177;SDS011;1095;50.992;6.798;2023-12-14T15:02:18;18.23;;;11.82;;